Time;durP1;ratioP1;P1;durP2;ratioP2;P2;SDS_P1;SDS_P2;PMS_P1;PMS_P2;Temp;Humidity;BMP_temperature;BMP_pressure;BME280_temperature;BME280_humidity;BME280_pressure;Samples;Min_cycle;Max_cycle;Signal;HPM_P1;HPM_P2
2024/01/21 00:00:40;;;;;;;11.25;4.82;;;;;;;-5.82;80.22;100419.22;4991610;28;20065;-66
2024/01/21 00:03:09;;;;;;;9.80;4.32;;;;;;;-5.65;79.76;100442.31;4990174;28;20045;-65
2024/01/21 00:05:36;;;;;;;9.05;4.30;;;;;;;-5.60;80.38;100451.09;4991169;28;20045;-65
2024/01/21 00:08:05;;;;;;;11.38;4.97;;;;;;;-5.81;80.40;100415.91;4991964;28;20035;-66
2024/01/21 00:10:34;;;;;;;10.13;4.50;;;;;;;-5.84;79.70;100410.63;4985779;28;20043;-65
2024/01/21 00:13:00;;;;;;;9.65;4.22;;;;;;;-5.68;80.29;100453.13;4995672;28;20133;-64
2024/01/21 00:15:29;;;;;;;8.70;4.05;;;;;;;-5.65;79.44;100462.59;4992430;28;20038;-64
2024/01/21 00:17:55;;;;;;;10.68;4.07;;;;;;;-5.80;79.69;100450.63;4955104;28;20042;-66
2024/01/21 00:20:21;;;;;;;9.15;4.47;;;;;;;-5.92;79.89;100452.38;4971753;28;20066;-65
2024/01/21 00:22:47;;;;;;;9.18;4.05;;;;;;;-5.80;79.73;100472.59;4979690;28;20042;-65
2024/01/21 00:25:14;;;;;;;9.48;4.65;;;;;;;-6.01;79.68;100457.72;5007107;28;20069;-65
2024/01/21 00:27:41;;;;;;;9.55;4.50;;;;;;;-6.20;79.76;100442.91;4986964;28;20097;-65
2024/01/21 00:30:07;;;;;;;9.88;4.28;;;;;;;-6.00;79.91;100486.47;4977466;28;20408;-64
2024/01/21 00:32:36;;;;;;;9.05;3.90;;;;;;;-6.24;79.29;100468.78;4989456;28;20392;-65
2024/01/21 00:35:03;;;;;;;7.15;3.40;;;;;;;-6.57;79.28;100431.09;4991819;28;20034;-63
2024/01/21 00:37:33;;;;;;;8.85;3.83;;;;;;;-6.39;79.88;100476.22;4985117;28;20053;-65
2024/01/21 00:39:59;;;;;;;9.32;4.63;;;;;;;-6.51;79.45;100479.66;4990139;28;20042;-65
2024/01/21 00:42:25;;;;;;;11.25;4.43;;;;;;;-6.51;79.62;100489.78;4977657;28;20042;-64
2024/01/21 00:44:52;;;;;;;10.98;4.90;;;;;;;-6.43;79.95;100502.97;4978150;28;20041;-65
2024/01/21 00:47:20;;;;;;;8.93;4.65;;;;;;;-6.49;79.02;100506.75;4976697;28;20058;-65
2024/01/21 00:49:49;;;;;;;13.32;4.43;;;;;;;-6.32;78.59;100507.94;4976152;28;20038;-65
2024/01/21 00:52:15;;;;;;;11.23;3.95;;;;;;;-6.14;79.36;100495.66;4978738;28;20035;-66
2024/01/21 00:54:44;;;;;;;9.35;4.18;;;;;;;-6.25;79.39;100498.34;4994348;28;20070;-66
2024/01/21 00:57:11;;;;;;;8.68;4.15;;;;;;;-6.36;79.37;100512.78;4990682;28;20161;-65
2024/01/21 00:59:37;;;;;;;8.18;3.90;;;;;;;-6.61;79.07;100504.22;4975722;28;20058;-63
2024/01/21 01:02:04;;;;;;;9.30;3.80;;;;;;;-6.72;79.13;100514.44;5010763;28;20353;-64
2024/01/21 01:04:33;;;;;;;9.68;4.13;;;;;;;-6.74;79.25;100523.63;4993850;28;20058;-64
2024/01/21 01:06:59;;;;;;;8.88;4.88;;;;;;;-6.99;78.64;100516.75;4993547;28;20172;-65
2024/01/21 01:09:26;;;;;;;7.57;3.92;;;;;;;-7.10;79.02;100497.38;4994222;28;20034;-65
2024/01/21 01:11:52;;;;;;;9.52;4.32;;;;;;;-6.95;78.92;100538.09;5009210;28;20046;-64
2024/01/21 01:14:22;;;;;;;8.50;4.32;;;;;;;-7.07;78.97;100525.44;4983860;28;20442;-64
2024/01/21 01:16:48;;;;;;;10.90;5.00;;;;;;;-7.19;78.43;100524.53;4977360;28;20136;-65
2024/01/21 01:19:15;;;;;;;8.20;4.03;;;;;;;-7.28;78.65;100528.16;4988067;28;20525;-65
2024/01/21 01:21:42;;;;;;;12.57;5.63;;;;;;;-7.35;78.67;100540.22;4973536;28;20045;-64
2024/01/21 01:24:08;;;;;;;12.52;5.25;;;;;;;-7.25;78.82;100560.38;4989191;28;20046;-64
2024/01/21 01:26:34;;;;;;;12.30;5.25;;;;;;;-7.34;78.58;100540.31;4993636;28;20042;-65
2024/01/21 01:29:04;;;;;;;12.00;5.38;;;;;;;-7.47;78.56;100520.81;4989527;28;20104;-64
2024/01/21 01:31:30;;;;;;;14.25;5.97;;;;;;;-7.44;78.01;100555.59;4985973;28;20088;-66
2024/01/21 01:33:56;;;;;;;11.25;5.85;;;;;;;-7.58;78.11;100550.34;4984325;28;20045;-64
2024/01/21 01:36:28;;;;;;;15.50;6.20;;;;;;;-7.48;78.38;100572.16;4972959;28;20038;-66
2024/01/21 01:38:54;;;;;;;;;;;;;;;-7.44;78.45;100584.28;4993655;28;20038;-64
2024/01/21 01:41:20;;;;;;;13.95;6.03;;;;;;;-7.57;77.98;100574.00;5003788;28;19972;-65
2024/01/21 01:43:52;;;;;;;12.10;6.13;;;;;;;-7.81;78.07;100556.19;4976679;28;20468;-65
2024/01/21 01:46:22;;;;;;;8.75;4.97;;;;;;;-7.86;77.81;100577.72;4961151;28;20038;-64
2024/01/21 01:48:56;;;;;;;15.65;5.97;;;;;;;-7.97;77.71;100559.19;5005239;28;20030;-64
2024/01/21 01:51:34;;;;;;;10.48;4.68;;;;;;;-7.79;77.95;100584.09;4974247;28;20042;-63
2024/01/21 01:54:04;;;;;;;11.73;4.18;;;;;;;-7.93;77.95;100567.88;4989938;28;20061;-64
2024/01/21 01:56:30;;;;;;;12.13;5.43;;;;;;;-7.98;77.50;100582.69;4974381;28;20050;-62
2024/01/21 01:59:01;;;;;;;11.02;5.03;;;;;;;-8.18;77.26;100560.94;4986814;28;20154;-64
2024/01/21 02:01:30;;;;;;;15.98;6.47;;;;;;;-8.20;77.88;100577.63;4991893;28;20049;-66
2024/01/21 02:03:57;;;;;;;11.27;5.50;;;;;;;-8.09;77.77;100589.44;4973487;28;20042;-67
2024/01/21 02:06:32;;;;;;;11.75;5.30;;;;;;;-8.05;77.57;100604.06;4984552;28;20031;-65
2024/01/21 02:08:59;;;;;;;10.27;5.47;;;;;;;-8.25;77.42;100581.41;5007581;28;20065;-65
2024/01/21 02:11:36;;;;;;;10.80;4.95;;;;;;;-8.18;77.39;100597.16;4991701;28;20034;-65
2024/01/21 02:14:06;;;;;;;11.63;5.22;;;;;;;-8.20;77.39;100606.28;4988076;28;20045;-64
2024/01/21 02:16:32;;;;;;;12.50;5.28;;;;;;;-8.18;77.31;100617.38;4973559;28;20038;-61
2024/01/21 02:19:01;;;;;;;9.20;4.10;;;;;;;-8.18;77.68;100614.00;4960368;28;20066;-65
2024/01/21 02:21:27;;;;;;;8.93;4.35;;;;;;;-8.23;77.61;100611.06;4972769;28;20045;-64
2024/01/21 02:23:53;;;;;;;11.45;5.30;;;;;;;-8.17;77.48;100628.38;4990592;28;20077;-64
2024/01/21 02:26:20;;;;;;;8.18;3.50;;;;;;;-8.23;76.89;100633.81;4991621;28;20069;-65
2024/01/21 02:28:47;;;;;;;11.82;4.93;;;;;;;-8.29;77.29;100630.81;4987575;28;20034;-64
2024/01/21 02:31:16;;;;;;;10.05;4.80;;;;;;;-8.37;77.21;100629.31;4985317;28;20203;-66
2024/01/21 02:33:47;;;;;;;11.32;4.57;;;;;;;-8.29;77.37;100638.38;5003955;28;20038;-64
2024/01/21 02:36:13;;;;;;;10.68;4.55;;;;;;;-8.36;76.93;100638.66;4976967;28;20042;-65
2024/01/21 02:38:42;;;;;;;11.90;4.97;;;;;;;-8.48;77.12;100629.31;4991424;28;20074;-65
2024/01/21 02:41:08;;;;;;;10.40;3.95;;;;;;;-8.29;77.32;100657.69;4989268;28;20130;-66
2024/01/21 02:43:34;;;;;;;10.93;4.93;;;;;;;-8.47;76.51;100668.09;4992015;28;20061;-64
2024/01/21 02:46:01;;;;;;;8.73;3.88;;;;;;;-8.70;76.64;100641.00;4991543;28;20041;-65
2024/01/21 02:48:30;;;;;;;9.27;4.07;;;;;;;-8.66;77.38;100658.16;4977790;28;20121;-65
2024/01/21 02:50:56;;;;;;;11.23;4.63;;;;;;;-8.69;76.85;100668.00;5004694;28;20149;-65
2024/01/21 02:53:22;;;;;;;11.85;4.78;;;;;;;-8.63;76.98;100673.56;4991378;28;20653;-64
2024/01/21 02:55:51;;;;;;;10.43;4.40;;;;;;;-8.75;76.77;100663.34;4974753;28;20045;-63
2024/01/21 02:58:20;;;;;;;9.98;4.13;;;;;;;-8.73;76.62;100671.91;5001638;28;20046;-65
2024/01/21 03:00:46;;;;;;;9.38;4.28;;;;;;;-8.73;77.13;100676.97;4988503;28;20042;-66
2024/01/21 03:03:13;;;;;;;8.82;3.83;;;;;;;-8.81;76.98;100663.72;4972832;28;20065;-64
2024/01/21 03:05:39;;;;;;;18.17;8.50;;;;;;;-8.69;76.94;100691.59;4992679;28;20050;-62
2024/01/21 03:08:09;;;;;;;11.43;5.22;;;;;;;-8.72;76.90;100703.97;4988330;28;20038;-64
2024/01/21 03:10:37;;;;;;;6.97;3.63;;;;;;;-8.79;76.57;100707.63;4971598;28;20038;-63
2024/01/21 03:13:04;;;;;;;8.02;3.72;;;;;;;-8.76;76.90;100711.16;4986532;28;20507;-64
2024/01/21 03:15:30;;;;;;;8.27;3.80;;;;;;;-8.83;76.59;100698.03;4973609;28;20039;-65
2024/01/21 03:17:58;;;;;;;12.38;4.63;;;;;;;-8.83;76.56;100712.31;4990552;28;20050;-63
2024/01/21 03:20:25;;;;;;;9.77;4.10;;;;;;;-8.91;76.78;100714.16;4970785;28;20057;-64
2024/01/21 03:22:51;;;;;;;8.40;4.40;;;;;;;-9.11;76.07;100693.19;4988556;28;20072;-64
2024/01/21 03:25:17;;;;;;;11.35;5.38;;;;;;;-8.85;77.70;100697.03;4985392;28;20673;-63
2024/01/21 03:27:47;;;;;;;9.60;4.65;;;;;;;-8.73;76.08;100726.56;4986651;28;20044;-63
2024/01/21 03:30:13;;;;;;;14.85;5.93;;;;;;;-8.86;76.00;100733.09;4986745;28;20042;-63
2024/01/21 03:32:42;;;;;;;12.38;4.85;;;;;;;-8.90;76.35;100737.78;4990052;28;20045;-64
2024/01/21 03:35:09;;;;;;;12.13;4.63;;;;;;;-8.99;76.34;100738.75;4981211;28;20049;-63
2024/01/21 03:37:35;;;;;;;10.80;4.72;;;;;;;-9.18;76.02;100726.25;4988186;28;20634;-63
2024/01/21 03:40:01;;;;;;;14.00;4.90;;;;;;;-9.51;76.07;100677.22;4970320;28;20038;-64
2024/01/21 03:42:38;;;;;;;8.88;3.97;;;;;;;-9.08;76.40;100751.47;4983702;28;20042;-64
2024/01/21 03:45:05;;;;;;;8.55;4.22;;;;;;;-9.24;75.99;100726.59;4978355;28;20038;-64
2024/01/21 03:47:34;;;;;;;9.90;4.07;;;;;;;-9.14;76.62;100752.59;5000876;28;20101;-66
2024/01/21 03:50:01;;;;;;;9.30;4.15;;;;;;;-9.31;75.35;100754.56;5000017;28;20074;-64
2024/01/21 03:52:34;;;;;;;9.52;3.83;;;;;;;-9.32;75.30;100772.97;4987722;28;20177;-64
2024/01/21 03:55:06;;;;;;;6.60;3.70;;;;;;;-9.40;75.34;100781.50;4988055;28;20149;-63
2024/01/21 03:57:32;;;;;;;10.82;4.53;;;;;;;-9.56;75.92;100761.63;4983037;28;20045;-65
2024/01/21 03:59:58;;;;;;;9.02;4.47;;;;;;;-9.65;75.91;100753.28;4992625;28;20034;-66
2024/01/21 04:02:29;;;;;;;9.52;3.47;;;;;;;-9.58;75.97;100763.13;4964251;28;20046;-64
2024/01/21 04:04:56;;;;;;;20.73;9.07;;;;;;;-9.59;76.31;100762.25;4991902;28;20089;-70
2024/01/21 04:07:24;;;;;;;15.45;5.47;;;;;;;-9.61;75.95;100762.88;4961630;28;20049;-64
2024/01/21 04:09:51;;;;;;;12.52;4.75;;;;;;;-9.64;75.47;100782.78;4990347;28;20034;-63
2024/01/21 04:12:17;;;;;;;13.98;5.13;;;;;;;-9.57;75.50;100810.28;4975986;28;20031;-64
2024/01/21 04:14:43;;;;;;;12.73;4.22;;;;;;;-9.72;75.34;100787.16;4999194;28;20516;-64
2024/01/21 04:17:12;;;;;;;11.60;4.18;;;;;;;-9.74;75.87;100792.03;4990258;28;20129;-65
2024/01/21 04:19:39;;;;;;;8.82;4.45;;;;;;;-9.93;74.78;100784.50;4974724;28;20046;-65
2024/01/21 04:22:05;;;;;;;10.02;4.40;;;;;;;-9.82;75.47;100823.25;5000814;28;20050;-64
2024/01/21 04:24:31;;;;;;;7.25;3.05;;;;;;;-9.78;75.57;100830.31;4976610;28;20043;-65
2024/01/21 04:27:09;;;;;;;6.97;2.92;;;;;;;-10.02;75.45;100796.28;4991265;28;20050;-65
2024/01/21 04:29:36;;;;;;;8.10;3.63;;;;;;;-9.76;75.78;100832.97;4969517;28;20038;-64
2024/01/21 04:32:04;;;;;;;6.60;2.88;;;;;;;-9.77;75.32;100852.22;4989615;28;20042;-63
2024/01/21 04:34:32;;;;;;;9.38;3.20;;;;;;;-10.03;75.49;100823.06;4981710;28;20034;-64
2024/01/21 04:37:01;;;;;;;7.72;3.67;;;;;;;-9.87;75.29;100860.59;5004974;28;20073;-64
2024/01/21 04:39:28;;;;;;;9.32;3.40;;;;;;;-9.98;75.51;100848.69;4964989;28;20045;-64
2024/01/21 04:41:54;;;;;;;9.02;4.10;;;;;;;-10.27;75.12;100816.72;4983755;28;20062;-64
2024/01/21 04:44:24;;;;;;;11.68;3.50;;;;;;;-10.05;75.40;100871.56;4975096;28;20072;-63
2024/01/21 04:46:52;;;;;;;;;;;;;;;-10.09;74.98;100869.50;4987171;28;20133;-64
2024/01/21 04:49:18;;;;;;;3.77;1.67;;;;;;;-10.56;74.95;100804.91;4990823;28;19941;-65
2024/01/21 04:51:44;;;;;;;8.93;3.43;;;;;;;-10.30;75.36;100846.66;4990920;28;20105;-65
2024/01/21 04:54:10;;;;;;;5.85;2.75;;;;;;;-10.24;74.46;100854.78;4992158;28;20088;-64
2024/01/21 04:56:37;;;;;;;7.72;3.00;;;;;;;-10.06;75.20;100890.81;4973068;28;20515;-64
2024/01/21 04:59:03;;;;;;;7.50;3.37;;;;;;;-10.31;74.16;100891.09;4972675;28;20049;-64
2024/01/21 05:01:33;;;;;;;6.87;3.30;;;;;;;-10.35;74.99;100883.09;4990497;28;20062;-64
2024/01/21 05:04:00;;;;;;;6.57;2.40;;;;;;;-10.27;75.31;100896.41;4960140;28;20046;-65
2024/01/21 05:06:26;;;;;;;8.77;3.13;;;;;;;-10.30;74.75;100891.97;4986432;28;20133;-65
2024/01/21 05:08:52;;;;;;;7.20;2.77;;;;;;;-10.26;74.51;100904.09;4961011;28;20045;-65
2024/01/21 05:11:22;;;;;;;3.20;1.67;;;;;;;-10.29;75.07;100902.19;4992458;28;20057;-67
2024/01/21 05:13:51;;;;;;;7.70;2.40;;;;;;;-10.13;75.04;100918.69;5006786;28;20096;-66
2024/01/21 05:16:17;;;;;;;9.63;3.40;;;;;;;-10.52;75.22;100852.28;5008435;28;20129;-66
2024/01/21 05:18:47;;;;;;;7.87;2.80;;;;;;;-10.18;75.30;100914.88;4988552;28;20045;-62
2024/01/21 05:21:20;;;;;;;7.15;2.90;;;;;;;-10.18;74.32;100918.28;4985827;28;20053;-64
2024/01/21 05:24:05;;;;;;;5.30;2.50;;;;;;;-10.25;74.91;100926.00;5001843;28;20066;-64
2024/01/21 05:26:51;;;;;;;5.85;2.65;;;;;;;-10.21;74.52;100935.63;4987079;28;20042;-64
2024/01/21 05:29:42;;;;;;;4.33;2.13;;;;;;;-10.27;74.36;100931.66;4972293;28;20038;-63
2024/01/21 05:32:08;;;;;;;3.17;1.87;;;;;;;-10.30;74.89;100933.16;5001672;28;20042;-64
2024/01/21 05:34:35;;;;;;;5.40;2.50;;;;;;;-10.34;74.54;100928.56;4961948;28;20555;-64
2024/01/21 05:37:05;;;;;;;6.97;3.00;;;;;;;-10.41;74.91;100916.19;4985461;28;20034;-66
2024/01/21 05:39:32;;;;;;;5.80;2.53;;;;;;;-10.35;74.65;100933.44;4986325;28;20088;-66
2024/01/21 05:42:05;;;;;;;8.03;3.10;;;;;;;-10.30;74.58;100958.31;5004648;28;20142;-68
2024/01/21 05:44:32;;;;;;;6.25;2.30;;;;;;;-10.29;74.07;100962.63;4973136;28;20049;-67
2024/01/21 05:46:59;;;;;;;7.90;3.33;;;;;;;-10.46;74.64;100929.97;4972865;28;20049;-66
2024/01/21 05:49:27;;;;;;;5.88;2.28;;;;;;;-10.05;74.59;100958.09;4990811;28;20042;-67
2024/01/21 05:51:53;;;;;;;7.70;3.05;;;;;;;-9.71;74.70;100963.66;4988304;28;20038;-66
2024/01/21 05:54:20;;;;;;;6.82;3.50;;;;;;;-9.28;74.71;100975.84;4997490;28;20097;-66
2024/01/21 05:56:51;;;;;;;8.10;3.45;;;;;;;-8.58;75.33;100975.22;5005948;28;20046;-64
2024/01/21 05:59:19;;;;;;;8.02;3.38;;;;;;;-7.54;75.77;100983.88;4988481;28;20137;-65
2024/01/21 06:01:55;;;;;;;12.05;4.25;;;;;;;-6.64;76.28;100967.41;4989894;28;20496;-65
2024/01/21 06:04:24;;;;;;;11.65;4.97;;;;;;;-5.76;75.84;100985.13;4992091;28;20042;-65
2024/01/21 06:06:51;;;;;;;14.30;4.60;;;;;;;-5.10;76.02;100980.69;4990381;28;20050;-64
2024/01/21 06:09:17;;;;;;;11.65;5.57;;;;;;;-4.31;75.85;100991.34;4992198;28;20042;-65
2024/01/21 06:11:48;;;;;;;12.20;5.85;;;;;;;-3.78;75.30;100993.28;4991769;28;20500;-66
2024/01/21 06:14:17;;;;;;;10.47;4.60;;;;;;;-3.14;76.27;101004.25;4993036;28;20046;-66
2024/01/21 06:16:46;;;;;;;11.52;5.03;;;;;;;-2.57;76.76;100987.53;4992771;28;20045;-66
2024/01/21 06:19:15;;;;;;;11.88;5.85;;;;;;;-1.88;75.77;100992.56;4987668;28;20043;-66
2024/01/21 06:21:48;;;;;;;13.00;5.15;;;;;;;-1.46;76.47;100984.84;4989228;28;20046;-66
2024/01/21 06:24:14;;;;;;;11.18;5.78;;;;;;;-0.86;76.63;100995.94;4973798;28;20085;-66
2024/01/21 06:26:44;;;;;;;12.15;5.40;;;;;;;-0.42;76.23;100991.53;5008065;28;20046;-65
2024/01/21 06:29:14;;;;;;;13.32;6.40;;;;;;;0.34;77.49;100989.53;4995376;28;20034;-71
2024/01/21 06:31:40;;;;;;;13.32;6.40;;;;;;;0.93;77.03;100995.91;5010482;28;20367;-67
2024/01/21 06:34:11;;;;;;;16.10;6.82;;;;;;;1.25;77.53;100949.56;4960788;28;20445;-69
2024/01/21 06:36:37;;;;;;;12.85;6.65;;;;;;;2.04;77.12;100990.00;4976739;28;20073;-66
2024/01/21 06:39:07;;;;;;;14.85;7.15;;;;;;;2.83;77.32;101007.91;5009140;28;20261;-69
2024/01/21 06:41:33;;;;;;;14.50;7.18;;;;;;;3.58;76.81;101002.38;4999748;28;20380;-69
2024/01/21 06:43:59;;;;;;;16.38;7.53;;;;;;;4.29;77.27;101001.53;4971121;28;20042;-69
2024/01/21 06:46:25;;;;;;;13.38;6.78;;;;;;;4.92;76.87;101008.00;4988148;28;20511;-70
2024/01/21 06:48:51;;;;;;;12.15;6.10;;;;;;;5.61;76.58;101018.81;4986318;28;20046;-69
2024/01/21 06:51:34;;;;;;;12.50;6.43;;;;;;;6.19;76.95;101016.22;4983918;28;21040;-71
2024/01/21 06:54:03;;;;;;;11.77;6.70;;;;;;;6.54;76.97;101016.31;4987055;28;20054;-69
2024/01/21 06:56:29;;;;;;;11.10;6.57;;;;;;;7.01;76.95;101000.28;4988479;28;20045;-67
2024/01/21 06:58:57;;;;;;;12.45;6.03;;;;;;;7.86;77.11;101014.31;4984092;28;20034;-67
2024/01/21 07:01:23;;;;;;;14.93;7.50;;;;;;;8.23;77.55;100983.09;4957119;28;20046;-68
2024/01/21 07:03:49;;;;;;;11.93;6.18;;;;;;;8.96;75.47;101029.44;4970504;28;20188;-68
2024/01/21 07:06:15;;;;;;;16.60;7.22;;;;;;;9.14;77.23;100995.13;4983810;28;20100;-69
2024/01/21 07:08:41;;;;;;;12.40;7.10;;;;;;;9.63;77.47;100994.13;4984232;28;20050;-68
2024/01/21 07:11:08;;;;;;;13.43;7.68;;;;;;;10.38;77.22;101027.13;4987020;28;20046;-66
2024/01/21 07:13:34;;;;;;;11.40;7.15;;;;;;;10.69;77.46;100999.72;4987974;28;20088;-68
2024/01/21 07:16:01;;;;;;;12.73;7.18;;;;;;;11.34;76.86;101016.78;4987658;28;20511;-67
2024/01/21 07:18:27;;;;;;;13.70;7.40;;;;;;;11.61;76.84;101010.88;4968614;28;20061;-68
2024/01/21 07:20:53;;;;;;;14.38;8.20;;;;;;;12.12;76.11;101029.44;4986269;28;20043;-68
2024/01/21 07:23:19;;;;;;;15.85;9.20;;;;;;;12.53;76.23;101040.88;4986724;28;20046;-66
2024/01/21 07:25:47;;;;;;;18.05;8.88;;;;;;;12.53;74.61;101029.59;4971947;28;20038;-70
2024/01/21 07:28:13;;;;;;;12.43;7.50;;;;;;;12.84;75.97;101030.50;4983291;28;20049;-66
2024/01/21 07:30:39;;;;;;;13.25;7.53;;;;;;;13.22;75.66;101019.19;5001442;28;20508;-68
2024/01/21 07:33:05;;;;;;;12.38;7.40;;;;;;;13.83;76.25;101029.59;4970563;28;20049;-67
2024/01/21 07:35:32;;;;;;;14.13;8.25;;;;;;;14.25;75.23;101017.22;4987255;28;20401;-68
2024/01/21 07:37:58;;;;;;;10.90;7.70;;;;;;;14.80;75.16;101045.75;4986485;28;20474;-72
2024/01/21 07:40:24;;;;;;;12.50;7.85;;;;;;;15.03;74.24;101028.13;4982889;28;20057;-70
2024/01/21 07:42:50;;;;;;;13.60;8.23;;;;;;;15.49;75.40;101005.84;4982640;28;20096;-69
2024/01/21 07:45:16;;;;;;;11.52;7.85;;;;;;;16.16;74.70;101034.03;4984454;28;20046;-68
2024/01/21 07:47:43;;;;;;;13.00;8.75;;;;;;;16.63;75.15;101039.53;4986276;28;20467;-72
2024/01/21 07:50:10;;;;;;;12.77;7.68;;;;;;;17.02;74.81;101015.31;4981837;28;20101;-67
2024/01/21 07:52:37;;;;;;;11.35;8.25;;;;;;;17.33;74.33;101024.44;4984219;28;20089;-66
2024/01/21 07:55:03;;;;;;;11.57;8.20;;;;;;;17.39;74.23;100998.91;4980704;28;20069;-65
2024/01/21 07:57:31;;;;;;;11.50;7.90;;;;;;;17.70;74.59;101014.13;4967053;28;20042;-70
2024/01/21 07:59:58;;;;;;;9.98;7.15;;;;;;;17.82;73.07;101028.81;4969204;28;20131;-67
2024/01/21 08:02:27;;;;;;;11.15;7.38;;;;;;;18.04;74.56;101039.78;4968297;28;20073;-68
2024/01/21 08:04:53;;;;;;;10.48;6.32;;;;;;;18.27;72.89;101035.81;4984523;28;20034;-70
2024/01/21 08:07:20;;;;;;;8.55;6.22;;;;;;;17.92;72.83;101042.66;4982925;28;20050;-70
2024/01/21 08:09:49;;;;;;;10.57;6.47;;;;;;;18.18;74.30;101047.41;4981060;28;20038;-67
2024/01/21 08:12:16;;;;;;;8.23;5.80;;;;;;;18.44;73.16;101037.22;4980604;28;20049;-71
2024/01/21 08:14:43;;;;;;;9.93;5.55;;;;;;;18.41;72.48;101038.16;4966109;28;20045;-67
2024/01/21 08:17:09;;;;;;;9.18;6.10;;;;;;;18.74;73.11;101035.69;4981605;28;20042;-66
2024/01/21 08:19:38;;;;;;;10.88;5.80;;;;;;;18.48;65.95;101057.34;4982969;28;20050;-68
2024/01/21 08:22:04;;;;;;;9.63;6.10;;;;;;;18.36;71.54;101056.72;4982692;28;20042;-67
2024/01/21 08:24:31;;;;;;;7.80;5.70;;;;;;;18.56;71.87;101047.50;4961803;28;20061;-69
2024/01/21 08:26:57;;;;;;;9.70;6.10;;;;;;;19.07;72.34;101069.22;4982676;28;20451;-71
2024/01/21 08:29:23;;;;;;;8.00;6.03;;;;;;;19.22;71.60;101016.06;4980212;28;20038;-66
2024/01/21 08:31:50;;;;;;;9.13;5.85;;;;;;;19.56;73.30;101028.38;4977875;28;20065;-67
2024/01/21 08:34:20;;;;;;;8.98;5.97;;;;;;;19.78;72.58;101019.00;4998528;28;20153;-68
2024/01/21 08:36:46;;;;;;;10.30;6.65;;;;;;;20.41;72.33;101064.75;4961409;28;20042;-72
2024/01/21 08:39:12;;;;;;;10.98;6.45;;;;;;;20.71;72.62;101045.38;4959924;28;20065;-70
2024/01/21 08:41:41;;;;;;;7.63;5.95;;;;;;;21.03;71.89;101054.06;4981903;28;20042;-67
2024/01/21 08:44:08;;;;;;;10.98;6.70;;;;;;;21.03;71.47;101062.88;4984284;28;20145;-68
2024/01/21 08:46:34;;;;;;;9.13;6.32;;;;;;;21.09;71.46;101050.34;4981591;28;20042;-67
2024/01/21 08:49:03;;;;;;;9.07;6.35;;;;;;;21.20;71.37;101056.16;5002273;28;20038;-71
2024/01/21 08:51:47;;;;;;;11.15;6.78;;;;;;;21.45;70.72;101076.50;4983796;28;20042;-68
2024/01/21 08:54:13;;;;;;;9.18;6.45;;;;;;;21.32;70.06;101050.44;4983808;28;20052;-69
2024/01/21 08:56:40;;;;;;;8.60;6.10;;;;;;;21.45;70.37;101068.56;4990726;28;20094;-70
2024/01/21 08:59:07;;;;;;;8.25;6.38;;;;;;;21.43;70.05;101070.41;4972987;28;20164;-70
2024/01/21 09:01:33;;;;;;;9.55;6.50;;;;;;;21.90;70.79;101069.66;5007365;28;20180;-66
2024/01/21 09:03:59;;;;;;;10.23;6.65;;;;;;;22.74;70.25;101074.50;4988596;28;20043;-71
2024/01/21 09:06:25;;;;;;;8.95;6.00;;;;;;;22.76;70.19;101048.78;5000389;28;20045;-69
2024/01/21 09:08:53;;;;;;;8.90;6.10;;;;;;;22.54;68.97;101053.16;4978512;28;20465;-71
2024/01/21 09:11:20;;;;;;;8.30;6.03;;;;;;;22.49;68.72;101055.13;4988758;28;20046;-66
2024/01/21 09:13:52;;;;;;;7.45;5.57;;;;;;;22.38;67.98;101057.31;4969722;28;20107;-72
2024/01/21 09:16:20;;;;;;;7.55;5.47;;;;;;;22.25;67.55;101041.88;4969194;28;20076;-71
2024/01/21 09:18:47;;;;;;;8.20;6.13;;;;;;;22.15;67.95;101056.41;4975921;28;20130;-70
2024/01/21 09:21:14;;;;;;;9.32;5.82;;;;;;;22.09;67.73;101083.97;4988188;28;20141;-65
2024/01/21 09:23:40;;;;;;;7.28;5.78;;;;;;;21.94;66.44;101077.47;4972003;28;20045;-70
2024/01/21 09:26:09;;;;;;;7.45;6.22;;;;;;;21.70;66.18;101083.66;4972879;28;20153;-70
2024/01/21 09:28:36;;;;;;;8.35;5.82;;;;;;;21.41;65.70;101072.25;4977187;28;20026;-71
2024/01/21 09:31:06;;;;;;;7.80;5.63;;;;;;;21.34;65.54;101087.47;4970048;28;20334;-71
2024/01/21 09:33:34;;;;;;;7.50;6.03;;;;;;;21.32;66.00;101079.56;4973315;28;20038;-72
2024/01/21 09:36:00;;;;;;;8.18;5.75;;;;;;;21.15;64.04;101079.25;4984556;28;20622;-71
2024/01/21 09:38:26;;;;;;;6.43;5.40;;;;;;;20.86;63.99;101079.28;5000717;28;20046;-70
2024/01/21 09:41:12;;;;;;;9.20;5.65;;;;;;;20.58;64.84;101076.63;4983399;28;20100;-70
2024/01/21 09:43:43;;;;;;;7.10;5.53;;;;;;;20.29;63.95;101087.16;4987337;28;20101;-70
2024/01/21 09:46:13;;;;;;;7.32;5.80;;;;;;;20.24;64.53;101112.84;4980420;28;20489;-72
2024/01/21 09:48:39;;;;;;;7.60;5.53;;;;;;;19.96;63.71;101091.63;4969159;28;20101;-70
2024/01/21 09:51:06;;;;;;;6.35;5.05;;;;;;;19.95;63.21;101111.88;4969952;28;20038;-70
2024/01/21 09:53:33;;;;;;;8.15;5.90;;;;;;;19.97;63.89;101106.56;4984351;28;20058;-70
2024/01/21 09:56:07;;;;;;;6.65;5.35;;;;;;;19.80;63.31;101112.25;4979276;28;20038;-68
2024/01/21 09:58:54;;;;;;;7.25;5.45;;;;;;;19.75;62.61;101115.00;4997005;28;20077;-67
2024/01/21 10:01:24;;;;;;;8.55;5.35;;;;;;;19.43;63.09;101121.97;4983165;28;20050;-70
2024/01/21 10:03:51;;;;;;;7.20;5.30;;;;;;;19.27;62.38;101114.47;4984361;28;20050;-70
2024/01/21 10:06:17;;;;;;;6.63;5.25;;;;;;;18.61;62.48;101037.72;4999247;28;20097;-74
2024/01/21 10:08:49;;;;;;;11.13;5.80;;;;;;;18.95;62.36;101081.78;4970956;28;20085;-71
2024/01/21 10:11:15;;;;;;;7.50;5.50;;;;;;;19.27;61.42;101129.41;4988159;28;20077;-68
2024/01/21 10:13:42;;;;;;;8.43;5.68;;;;;;;19.41;62.21;101126.44;4973324;28;20053;-74
2024/01/21 10:16:12;;;;;;;7.07;5.43;;;;;;;19.32;60.52;101135.44;4985116;28;20050;-72
2024/01/21 10:18:38;;;;;;;8.98;5.45;;;;;;;18.23;58.85;101105.25;4987830;28;20519;-71
2024/01/21 10:21:09;;;;;;;8.65;5.85;;;;;;;16.23;56.70;101135.47;4987744;28;20562;-68
2024/01/21 10:23:35;;;;;;;8.32;5.38;;;;;;;14.25;56.70;101142.88;4971394;28;20041;-72
2024/01/21 10:26:04;;;;;;;8.55;4.93;;;;;;;12.49;56.46;101141.81;4985302;28;20141;-70
2024/01/21 10:28:35;;;;;;;9.30;6.20;;;;;;;11.03;56.53;101141.56;4965074;28;20129;-74
2024/01/21 10:31:06;;;;;;;6.53;4.80;;;;;;;9.57;56.67;101127.44;4973368;28;20042;-73
2024/01/21 10:33:35;;;;;;;7.70;4.60;;;;;;;8.55;56.05;101154.09;4972751;28;20049;-73
2024/01/21 10:36:02;;;;;;;9.07;4.70;;;;;;;7.51;57.41;101144.78;4987367;28;20361;-78
2024/01/21 10:38:32;;;;;;;7.10;4.72;;;;;;;7.01;57.92;101183.16;4980793;28;20448;-69
2024/01/21 10:41:00;;;;;;;8.60;4.78;;;;;;;6.22;57.49;101170.50;4980316;28;20045;-71
2024/01/21 10:43:29;;;;;;;9.02;4.53;;;;;;;5.37;58.55;101168.63;4984754;28;20415;-69
2024/01/21 10:45:57;;;;;;;11.35;5.45;;;;;;;4.66;59.15;101136.03;4981822;28;20053;-68
2024/01/21 10:48:24;;;;;;;9.65;5.45;;;;;;;4.24;58.79;101156.81;4980374;28;20073;-69
2024/01/21 10:50:54;;;;;;;8.70;5.30;;;;;;;3.81;59.42;101174.00;4996055;28;20042;-70
2024/01/21 10:53:23;;;;;;;10.70;5.70;;;;;;;3.45;59.75;101208.56;4980186;28;20054;-68
2024/01/21 10:55:51;;;;;;;14.68;7.40;;;;;;;2.93;60.45;101202.03;4968087;28;20045;-69
2024/01/21 10:58:18;;;;;;;16.25;8.95;;;;;;;2.34;59.71;101238.78;4960952;28;20046;-71
2024/01/21 11:00:45;;;;;;;19.85;10.05;;;;;;;1.63;59.87;101223.38;5000952;28;20034;-68
2024/01/21 11:03:32;;;;;;;22.08;11.85;;;;;;;1.17;60.32;101242.44;4980756;28;20927;-69
2024/01/21 11:06:00;;;;;;;24.77;13.02;;;;;;;0.54;60.87;101250.19;4996338;28;21105;-68
2024/01/21 11:08:27;;;;;;;22.20;11.88;;;;;;;-0.24;60.89;101232.19;4996698;28;20053;-69
2024/01/21 11:11:09;;;;;;;21.63;11.18;;;;;;;-0.54;61.69;101247.47;4999114;28;20500;-68
2024/01/21 11:13:46;;;;;;;20.60;10.25;;;;;;;-0.84;62.32;101251.66;4995200;28;20061;-68
2024/01/21 11:16:28;;;;;;;23.48;10.80;;;;;;;-1.09;62.59;101260.38;4990817;28;20042;-63
2024/01/21 11:18:59;;;;;;;22.30;10.52;;;;;;;-1.22;62.81;101258.72;4996238;28;20045;-67
2024/01/21 11:21:27;;;;;;;20.25;10.38;;;;;;;-1.60;62.56;101242.75;4997039;28;20042;-72
2024/01/21 11:24:08;;;;;;;20.45;10.05;;;;;;;-1.82;62.97;101251.59;4994967;28;20137;-65
2024/01/21 11:26:47;;;;;;;18.17;9.67;;;;;;;-1.97;63.50;101258.25;4996996;28;20110;-65